Time;durP1;ratioP1;P1;durP2;ratioP2;P2;SDS_P1;SDS_P2;PMS_P1;PMS_P2;Temp;Humidity;BMP_temperature;BMP_pressure;BME280_temperature;BME280_humidity;BME280_pressure;Samples;Min_cycle;Max_cycle;Signal;HPM_P1;HPM_P2
2022/08/14 00:02:13;;;;;;;4.20;2.30;;;;;;;25.50;46.71;100793.94;5054385;28;20048;-73
2022/08/14 00:04:41;;;;;;;3.92;2.88;;;;;;;25.56;46.72;100793.28;5054411;28;20051;-73
2022/08/14 00:07:12;;;;;;;4.10;2.50;;;;;;;25.59;46.67;100781.22;5055147;28;20056;-73
2022/08/14 00:09:42;;;;;;;3.03;2.38;;;;;;;25.64;46.46;100779.69;5054474;28;20072;-73
2022/08/14 00:12:28;;;;;;;3.50;2.80;;;;;;;25.69;46.51;100772.91;5054575;28;20049;-73
2022/08/14 00:15:06;;;;;;;3.35;2.72;;;;;;;25.72;46.67;100767.09;5053388;28;20041;-73
2022/08/14 00:17:34;;;;;;;3.30;2.60;;;;;;;25.75;46.62;100764.88;5053385;28;20056;-73
2022/08/14 00:20:13;;;;;;;3.08;2.40;;;;;;;25.77;46.42;100767.44;5053272;28;20056;-73
2022/08/14 00:22:50;;;;;;;3.67;2.70;;;;;;;25.79;46.49;100770.84;5054107;28;20044;-73
2022/08/14 00:25:25;;;;;;;4.57;3.20;;;;;;;25.82;46.59;100778.63;5054140;28;20041;-73
2022/08/14 00:28:12;;;;;;;3.40;2.33;;;;;;;25.84;46.31;100773.88;5054591;28;20389;-73
2022/08/14 00:30:42;;;;;;;5.50;2.70;;;;;;;25.86;46.39;100763.69;5054026;28;20049;-73
2022/08/14 00:33:09;;;;;;;2.95;2.55;;;;;;;25.86;46.36;100763.69;5053087;28;20053;-73
2022/08/14 00:35:44;;;;;;;3.25;2.63;;;;;;;25.88;46.33;100770.63;5053057;28;20500;-73
2022/08/14 00:38:32;;;;;;;4.78;3.03;;;;;;;25.89;46.41;100766.91;5054242;28;20049;-73
2022/08/14 00:41:06;;;;;;;3.70;2.97;;;;;;;25.90;46.48;100767.75;5053231;28;20071;-73
2022/08/14 00:43:37;;;;;;;2.80;2.42;;;;;;;25.92;46.47;100768.41;5052770;28;20404;-73
2022/08/14 00:46:10;;;;;;;5.10;2.83;;;;;;;25.92;46.34;100762.97;5053605;28;20041;-73
2022/08/14 00:48:57;;;;;;;4.55;2.97;;;;;;;25.94;46.39;100750.09;5054497;28;20048;-73
2022/08/14 00:51:26;;;;;;;4.30;3.05;;;;;;;25.95;46.26;100753.66;5049581;28;20041;-73
2022/08/14 00:54:05;;;;;;;3.10;2.60;;;;;;;25.95;46.18;100759.06;5033658;28;20049;-73
2022/08/14 00:56:50;;;;;;;3.97;3.08;;;;;;;25.95;46.26;100765.34;5033857;28;20045;-73
2022/08/14 00:59:27;;;;;;;4.32;2.75;;;;;;;25.96;45.95;100761.59;5034208;28;20050;-73
2022/08/14 01:01:58;;;;;;;4.72;3.00;;;;;;;25.97;46.10;100759.72;5046717;28;20059;-73
2022/08/14 01:04:27;;;;;;;5.47;2.92;;;;;;;25.97;46.33;100757.00;5073431;28;20040;-72
2022/08/14 01:07:18;;;;;;;3.83;2.83;;;;;;;25.97;46.33;100754.31;5073600;28;20075;-73
2022/08/14 01:09:54;;;;;;;3.88;2.75;;;;;;;25.98;46.35;100746.00;5073342;28;20056;-72
2022/08/14 01:12:24;;;;;;;3.15;2.60;;;;;;;25.99;46.33;100746.84;5073476;28;20103;-73
2022/08/14 01:14:57;;;;;;;4.20;2.80;;;;;;;25.99;46.45;100744.97;5071866;28;20055;-73
2022/08/14 01:21:02;;;;;;;6.22;3.35;;;;;;;25.99;46.36;100736.84;5073157;28;20052;-73
2022/08/14 01:23:14;;;;;;;3.60;2.70;;;;;;;26.00;46.57;100722.25;5073689;28;20492;-73
2022/08/14 01:25:47;;;;;;;4.57;2.67;;;;;;;26.01;46.54;100723.09;5073076;28;20232;-74
2022/08/14 01:28:15;;;;;;;4.97;3.17;;;;;;;26.02;46.37;100724.78;5073037;28;20044;-73
2022/08/14 01:31:23;;;;;;;4.28;2.95;;;;;;;26.03;46.55;100713.75;5073420;28;20049;-73
2022/08/14 01:33:55;;;;;;;3.28;2.67;;;;;;;26.01;46.44;100704.97;5071874;28;20051;-73
2022/08/14 01:36:43;;;;;;;4.82;3.00;;;;;;;26.01;46.46;100696.84;5073155;28;20051;-73
2022/08/14 01:39:13;;;;;;;4.97;3.08;;;;;;;26.02;46.38;100695.81;5073364;28;20040;-72
2022/08/14 01:41:48;;;;;;;4.10;2.83;;;;;;;26.02;46.48;100701.22;5070675;28;20060;-72
2022/08/14 01:44:16;;;;;;;4.30;2.70;;;;;;;26.03;46.58;100697.47;5046537;28;20489;-73
2022/08/14 01:47:11;;;;;;;3.72;2.63;;;;;;;26.03;46.64;100691.22;5073576;28;20051;-74
2022/08/14 01:49:50;;;;;;;3.13;2.65;;;;;;;26.03;46.49;100681.19;5071758;28;20419;-73
2022/08/14 01:52:35;;;;;;;3.92;2.60;;;;;;;26.04;46.35;100672.03;5060165;28;20048;-73
2022/08/14 01:55:30;;;;;;;2.80;2.50;;;;;;;26.05;46.50;100684.59;5051691;28;20060;-73
2022/08/14 01:57:59;;;;;;;3.58;2.60;;;;;;;26.05;46.41;100686.44;5052679;28;20045;-73
2022/08/14 02:00:52;;;;;;;2.88;2.10;;;;;;;26.06;46.39;100686.28;5053032;28;20058;-74
2022/08/14 02:03:23;;;;;;;3.83;2.92;;;;;;;26.06;46.25;100685.44;5052784;28;20075;-73
2022/08/14 02:05:58;;;;;;;3.80;2.80;;;;;;;26.06;46.50;100683.56;5053220;28;20036;-73
2022/08/14 02:08:45;;;;;;;4.43;2.65;;;;;;;26.06;46.27;100680.00;5052625;28;20056;-73
2022/08/14 02:11:23;;;;;;;3.63;2.70;;;;;;;26.06;46.43;100671.88;5052963;28;20052;-73
2022/08/14 02:14:01;;;;;;;4.40;2.83;;;;;;;26.05;46.46;100660.19;5052770;28;20489;-74
2022/08/14 02:16:38;;;;;;;4.68;2.92;;;;;;;26.07;46.28;100663.53;5052958;28;20040;-74
2022/08/14 02:19:10;;;;;;;3.88;2.42;;;;;;;26.07;46.44;100662.69;5051083;28;20060;-71
2022/08/14 02:21:39;;;;;;;3.42;2.47;;;;;;;26.07;46.42;100658.13;5052714;28;20041;-72
2022/08/14 02:24:22;;;;;;;7.47;3.13;;;;;;;26.08;46.52;100657.09;5052808;28;20056;-72
2022/08/14 02:27:08;;;;;;;5.97;2.80;;;;;;;26.08;46.52;100648.94;5052433;28;20412;-73
2022/08/14 02:29:55;;;;;;;4.07;2.97;;;;;;;26.08;46.60;100643.53;5052377;28;20408;-73
2022/08/14 02:32:33;;;;;;;3.20;2.90;;;;;;;26.08;46.53;100640.81;5052626;28;20147;-73
2022/08/14 02:35:17;;;;;;;4.03;2.97;;;;;;;26.08;46.52;100643.53;5050891;28;20052;-72
2022/08/14 02:37:47;;;;;;;4.43;3.10;;;;;;;26.08;46.52;100650.81;5052182;28;20052;-73
2022/08/14 02:40:17;;;;;;;3.97;2.67;;;;;;;26.08;46.66;100650.81;5052299;28;20041;-73
2022/08/14 02:42:46;;;;;;;4.20;2.67;;;;;;;26.08;46.57;100648.09;5051186;28;20052;-73
2022/08/14 02:45:32;;;;;;;5.13;3.13;;;;;;;26.08;46.61;100646.22;5051712;28;20503;-73
2022/08/14 02:48:13;;;;;;;4.00;2.58;;;;;;;26.08;46.72;100646.22;5052627;28;20045;-73
2022/08/14 02:51:04;;;;;;;4.03;3.20;;;;;;;26.07;46.73;100632.84;5050663;28;20041;-73
2022/08/14 02:53:32;;;;;;;3.55;2.67;;;;;;;26.08;46.71;100632.66;5048149;28;20053;-73
2022/08/14 02:56:03;;;;;;;8.75;2.90;;;;;;;26.09;46.68;100631.66;5034895;28;20508;-73
2022/08/14 02:58:51;;;;;;;3.78;2.60;;;;;;;26.08;46.33;100623.69;5035824;28;20049;-73
2022/08/14 03:01:23;;;;;;;4.22;2.83;;;;;;;26.09;46.47;100619.94;5036477;28;20049;-73
2022/08/14 03:04:10;;;;;;;4.65;2.55;;;;;;;26.09;46.49;100626.25;5034712;28;20050;-73
2022/08/14 03:06:42;;;;;;;4.65;2.78;;;;;;;26.09;46.22;100625.38;5035577;28;20041;-73
2022/08/14 03:09:29;;;;;;;10.43;3.20;;;;;;;26.08;46.38;100621.81;5035678;28;20045;-73
2022/08/14 03:12:16;;;;;;;3.10;2.35;;;;;;;26.08;46.39;100613.69;5035816;28;20400;-73
2022/08/14 03:15:12;;;;;;;3.88;2.75;;;;;;;26.08;46.44;100624.53;5049130;28;20045;-73
2022/08/14 03:17:42;;;;;;;2.95;2.30;;;;;;;26.07;46.27;100612.00;5035106;28;20053;-73
2022/08/14 03:20:29;;;;;;;4.88;3.00;;;;;;;26.08;46.30;100620.97;5035442;28;20049;-72
2022/08/14 03:22:59;;;;;;;4.75;2.72;;;;;;;26.08;46.37;100629.13;5035442;28;20670;-72
2022/08/14 03:25:32;;;;;;;3.65;2.78;;;;;;;26.07;46.24;100622.84;5035770;28;20048;-72
2022/08/14 03:28:06;;;;;;;3.85;2.72;;;;;;;26.07;46.17;100620.13;5035401;28;20049;-72
2022/08/14 03:30:34;;;;;;;3.42;2.53;;;;;;;26.06;46.34;100615.75;5035441;28;20072;-72
2022/08/14 03:33:07;;;;;;;;;;;;;;;26.06;46.13;100609.47;5035749;28;20054;-72
2022/08/14 03:35:39;;;;;;;3.85;2.97;;;;;;;26.07;46.33;100613.88;5035723;28;19921;-72
2022/08/14 03:38:26;;;;;;;4.35;2.90;;;;;;;26.06;46.30;100604.88;5035212;28;20072;-72
2022/08/14 03:41:23;;;;;;;5.22;2.70;;;;;;;26.06;46.12;100604.06;5035199;28;20390;-72
2022/08/14 03:43:55;;;;;;;3.35;2.63;;;;;;;26.05;46.01;100603.22;5036131;28;20058;-72
2022/08/14 03:46:30;;;;;;;3.50;2.72;;;;;;;26.06;46.18;100601.34;5047012;28;20044;-72
2022/08/14 03:49:21;;;;;;;4.90;2.70;;;;;;;26.06;46.08;100602.19;5035042;28;20045;-73
2022/08/14 03:51:55;;;;;;;4.25;2.80;;;;;;;26.06;46.21;100610.31;5043254;28;20045;-72
2022/08/14 03:54:24;;;;;;;3.65;2.60;;;;;;;26.07;46.27;100616.59;5053910;28;20492;-72
2022/08/14 03:56:53;;;;;;;5.47;2.92;;;;;;;26.07;46.32;100609.28;5054745;28;20059;-72
2022/08/14 03:59:20;;;;;;;4.93;2.60;;;;;;;26.07;46.39;100612.00;5053561;28;20049;-73
2022/08/14 04:01:50;;;;;;;3.17;2.55;;;;;;;26.09;46.27;100609.97;5054555;28;20052;-72
2022/08/14 04:04:30;;;;;;;4.35;2.55;;;;;;;26.08;46.29;100599.28;5054737;28;20052;-72
2022/08/14 04:06:59;;;;;;;3.83;2.97;;;;;;;26.07;46.53;100606.56;5054841;28;20041;-72
2022/08/14 04:09:26;;;;;;;5.00;3.35;;;;;;;26.05;46.08;100605.94;5054332;28;20044;-72
2022/08/14 04:11:54;;;;;;;5.50;3.40;;;;;;;26.01;45.80;100601.00;5054630;28;20052;-73
2022/08/14 04:14:24;;;;;;;6.20;3.95;;;;;;;25.98;45.68;100604.94;5053276;28;20044;-73
2022/08/14 04:16:51;;;;;;;4.13;3.05;;;;;;;25.95;45.79;100594.47;5054731;28;20499;-73
2022/08/14 04:19:22;;;;;;;3.42;3.08;;;;;;;25.91;45.79;100589.59;5053132;28;20050;-72
2022/08/14 04:21:54;;;;;;;3.35;2.97;;;;;;;25.89;45.98;100589.78;5054889;28;20404;-73
2022/08/14 04:24:31;;;;;;;3.78;3.38;;;;;;;25.87;46.58;100594.53;5053102;28;20049;-73
2022/08/14 04:27:10;;;;;;;3.85;2.97;;;;;;;25.84;46.73;100593.00;5054041;28;20050;-73
2022/08/14 04:29:40;;;;;;;4.03;2.85;;;;;;;25.80;46.74;100588.97;5054667;28;20052;-73
2022/08/14 04:32:09;;;;;;;5.13;3.25;;;;;;;25.79;46.96;100592.72;5054141;28;20044;-72
2022/08/14 04:34:57;;;;;;;3.42;2.60;;;;;;;25.75;47.11;100585.94;5053900;28;20059;-72
2022/08/14 04:45:47;;;;;;;3.55;2.63;;;;;;;25.71;47.57;100576.47;5053472;28;20059;-73
2022/08/14 04:48:19;;;;;;;3.35;2.85;;;;;;;25.72;47.76;100575.44;5053307;28;20504;-73
2022/08/14 04:51:09;;;;;;;4.13;3.28;;;;;;;25.70;47.73;100571.22;5051089;28;20426;-73
2022/08/14 04:53:42;;;;;;;3.60;3.08;;;;;;;25.70;47.73;100579.38;5034089;28;20041;-73
2022/08/14 04:56:12;;;;;;;3.97;3.30;;;;;;;25.68;47.58;100567.84;5033776;28;20045;-72
2022/08/14 04:59:03;;;;;;;4.60;3.20;;;;;;;25.67;47.43;100580.56;5033689;28;20052;-72
2022/08/14 05:01:42;;;;;;;3.10;2.80;;;;;;;25.66;47.20;100581.59;5034655;28;20053;-73
2022/08/14 05:04:17;;;;;;;4.00;3.45;;;;;;;25.64;47.26;100570.06;5033634;28;20400;-73
2022/08/14 05:06:51;;;;;;;3.38;3.08;;;;;;;25.63;46.96;100581.94;5033726;28;20049;-73
2022/08/14 05:09:23;;;;;;;4.95;3.40;;;;;;;25.60;46.76;100576.88;5032958;28;20053;-73
2022/08/14 05:11:57;;;;;;;3.78;3.47;;;;;;;25.57;46.79;100572.66;5033462;28;20053;-73
2022/08/14 05:14:45;;;;;;;5.30;3.40;;;;;;;25.56;46.98;100573.69;5033902;28;20050;-73
2022/08/14 05:17:25;;;;;;;6.35;3.30;;;;;;;25.55;47.01;100572.00;5032954;28;20052;-73
2022/08/14 05:20:11;;;;;;;5.00;3.97;;;;;;;25.51;47.53;100573.38;5048799;28;20053;-73
2022/08/14 05:22:58;;;;;;;6.10;3.60;;;;;;;25.45;48.42;100567.84;5033843;28;20405;-73
2022/08/14 05:25:28;;;;;;;6.35;3.42;;;;;;;25.39;48.79;100580.22;5033252;28;20049;-73
2022/08/14 05:28:04;;;;;;;4.10;3.35;;;;;;;25.35;49.01;100581.59;5033188;28;20041;-73
2022/08/14 05:30:42;;;;;;;5.18;3.15;;;;;;;25.35;49.35;100578.88;5034083;28;20045;-73
2022/08/14 05:33:11;;;;;;;4.32;3.25;;;;;;;25.37;49.22;100576.84;5033410;28;20053;-73
2022/08/14 05:35:39;;;;;;;3.78;2.97;;;;;;;25.36;49.41;100570.59;5033550;28;20072;-73
2022/08/14 05:38:12;;;;;;;4.00;3.60;;;;;;;25.38;49.29;100578.53;5033594;28;20056;-73
2022/08/14 05:41:03;;;;;;;4.85;3.10;;;;;;;25.36;49.36;100578.72;5033234;28;20053;-73
2022/08/14 05:43:35;;;;;;;5.50;3.78;;;;;;;25.35;49.22;100568.88;5033167;28;20056;-73
2022/08/14 05:46:12;;;;;;;3.58;3.28;;;;;;;25.36;48.80;100577.84;5038781;28;20036;-73
2022/08/14 05:48:41;;;;;;;3.85;3.35;;;;;;;25.37;48.93;100582.28;5048895;28;20049;-73
2022/08/14 05:51:09;;;;;;;3.83;3.42;;;;;;;25.36;48.82;100578.72;5049602;28;20049;-73
2022/08/14 05:53:39;;;;;;;5.22;3.67;;;;;;;25.36;48.02;100578.72;5033082;28;20056;-73
2022/08/14 05:56:08;;;;;;;4.60;3.85;;;;;;;25.34;47.71;100585.34;5033177;28;20048;-73
2022/08/14 05:58:36;;;;;;;6.00;4.22;;;;;;;25.30;47.72;100586.72;5032777;28;20400;-73
2022/08/14 06:01:08;;;;;;;4.40;3.70;;;;;;;25.29;47.59;100588.59;5032994;28;20056;-73
2022/08/14 06:03:36;;;;;;;4.03;3.45;;;;;;;25.29;47.01;100582.31;5033311;28;20056;-73
2022/08/14 06:06:06;;;;;;;5.88;3.67;;;;;;;25.26;46.38;100596.22;5033070;28;20044;-73
2022/08/14 06:08:34;;;;;;;4.10;3.42;;;;;;;25.23;46.42;100591.13;5032843;28;20413;-72
2022/08/14 06:11:08;;;;;;;8.48;3.67;;;;;;;25.20;46.40;100580.66;5032964;28;20481;-72
2022/08/14 06:13:38;;;;;;;4.38;2.90;;;;;;;25.19;46.71;100578.97;5033152;28;20049;-73
2022/08/14 06:16:14;;;;;;;4.07;2.88;;;;;;;25.21;46.63;100579.66;5032759;28;20041;-73
2022/08/14 06:18:48;;;;;;;3.15;2.80;;;;;;;25.23;46.45;100580.31;5032819;28;20056;-73
2022/08/14 06:21:21;;;;;;;5.57;2.80;;;;;;;25.24;46.87;100572.03;5033134;28;20041;-73
2022/08/14 06:23:49;;;;;;;3.25;2.50;;;;;;;25.26;46.50;100574.53;5032930;28;20057;-72
2022/08/14 06:26:18;;;;;;;5.47;2.50;;;;;;;25.29;46.34;100568.78;5032761;28;20052;-73
2022/08/14 06:28:49;;;;;;;2.92;2.60;;;;;;;25.32;46.15;100562.97;5033274;28;20056;-72
2022/08/14 06:31:21;;;;;;;3.15;2.50;;;;;;;25.34;45.94;100564.50;5035822;28;20124;-72
2022/08/14 06:33:49;;;;;;;3.60;2.75;;;;;;;25.35;46.07;100552.63;5036350;28;20038;-72
2022/08/14 06:36:37;;;;;;;3.58;3.17;;;;;;;25.34;46.33;100559.06;5036866;28;20045;-72
2022/08/14 06:39:06;;;;;;;3.53;2.85;;;;;;;25.31;46.80;100566.72;5036196;28;20046;-72
2022/08/14 06:41:40;;;;;;;3.55;3.10;;;;;;;25.29;47.35;100574.19;5035955;28;20061;-72
2022/08/14 06:44:26;;;;;;;8.27;3.58;;;;;;;25.23;47.12;100566.75;5036194;28;20049;-73
2022/08/14 06:47:03;;;;;;;3.42;2.95;;;;;;;25.22;47.09;100573.19;5039609;28;20044;-74
2022/08/14 06:49:32;;;;;;;4.50;3.45;;;;;;;25.19;46.69;100579.81;5055286;28;20045;-74
2022/08/14 06:52:10;;;;;;;3.50;2.88;;;;;;;25.18;47.12;100571.88;5045722;28;20053;-73
2022/08/14 06:54:42;;;;;;;3.50;3.07;;;;;;;25.17;47.23;100570.19;5036515;28;20050;-73
2022/08/14 06:57:11;;;;;;;7.60;3.42;;;;;;;25.16;47.13;100566.63;5036024;28;20037;-73
2022/08/14 06:59:40;;;;;;;3.63;3.00;;;;;;;25.13;46.79;100567.00;5035793;28;20046;-73
2022/08/14 07:07:47;;;;;;;3.58;3.03;;;;;;;25.04;47.16;100568.84;5075573;28;20049;-73
2022/08/14 07:10:15;;;;;;;3.80;3.17;;;;;;;25.03;47.10;100569.84;5076032;28;20044;-73
2022/08/14 07:12:44;;;;;;;3.90;2.65;;;;;;;25.03;47.50;100569.00;5075862;28;20049;-74
2022/08/14 07:15:31;;;;;;;3.40;2.55;;;;;;;25.02;47.43;100579.00;5074493;28;20412;-73
2022/08/14 07:18:08;;;;;;;4.38;2.90;;;;;;;25.03;46.98;100582.56;5076198;28;20047;-74
2022/08/14 07:20:37;;;;;;;11.43;3.22;;;;;;;25.02;46.59;100583.59;5075362;28;20403;-73
2022/08/14 07:23:06;;;;;;;8.05;2.58;;;;;;;25.02;46.41;100578.16;5090784;28;20044;-73
2022/08/14 07:25:47;;;;;;;6.65;2.50;;;;;;;25.01;46.06;100579.19;5075851;28;20049;-73
2022/08/14 07:28:22;;;;;;;5.25;2.67;;;;;;;25.02;45.49;100589.00;5074118;28;20053;-74
2022/08/14 07:30:55;;;;;;;4.30;2.42;;;;;;;25.02;44.52;100591.72;5075530;28;20052;-74
2022/08/14 07:33:24;;;;;;;2.92;2.17;;;;;;;25.01;44.99;100588.16;5073922;28;20063;-74
2022/08/14 07:35:59;;;;;;;2.97;2.25;;;;;;;25.03;44.16;100582.56;5075734;28;20510;-74
2022/08/14 07:38:27;;;;;;;2.75;2.33;;;;;;;25.02;44.37;100578.16;5073921;28;20435;-74
2022/08/14 07:41:04;;;;;;;2.72;2.22;;;;;;;25.05;44.08;100591.38;5073571;28;20048;-73
2022/08/14 07:43:42;;;;;;;3.78;2.17;;;;;;;25.07;44.13;100587.44;5075836;28;20052;-74
2022/08/14 07:46:15;;;;;;;3.75;2.28;;;;;;;25.10;44.74;100597.97;5075155;28;20044;-75
2022/08/14 07:48:55;;;;;;;3.33;2.30;;;;;;;25.13;44.53;100594.91;5043782;28;20041;-74
2022/08/14 07:51:23;;;;;;;4.45;2.72;;;;;;;25.18;44.32;100593.53;5034486;28;20046;-74
2022/08/14 07:53:52;;;;;;;2.92;2.08;;;;;;;25.20;43.69;100591.50;5035051;28;20046;-74
2022/08/14 07:56:23;;;;;;;5.22;2.25;;;;;;;25.20;43.66;100594.19;5034512;28;20042;-74
2022/08/14 07:59:11;;;;;;;3.75;2.25;;;;;;;25.21;43.63;100594.03;5035364;28;20057;-74
2022/08/14 08:01:41;;;;;;;3.47;2.20;;;;;;;25.23;44.30;100591.13;5034946;28;20068;-74
2022/08/14 08:04:23;;;;;;;4.38;2.35;;;;;;;25.23;44.75;100596.56;5034943;28;20482;-74
2022/08/14 08:06:54;;;;;;;3.08;2.15;;;;;;;25.24;44.92;100595.53;5034113;28;20054;-74
2022/08/14 08:09:25;;;;;;;6.75;2.47;;;;;;;25.25;45.36;100594.53;5034733;28;20073;-75
2022/08/14 08:12:01;;;;;;;3.50;2.40;;;;;;;25.25;45.37;100599.94;5034556;28;20056;-75
2022/08/14 08:14:33;;;;;;;3.42;3.10;;;;;;;25.25;45.47;100600.78;5034002;28;20050;-75
2022/08/14 08:17:22;;;;;;;3.25;2.95;;;;;;;25.26;45.91;100598.94;5034229;28;20385;-74
2022/08/14 08:19:50;;;;;;;4.28;3.67;;;;;;;25.26;46.46;100594.34;5034611;28;20053;-73
2022/08/14 08:22:19;;;;;;;6.60;4.10;;;;;;;25.27;46.70;100587.06;5033944;28;20065;-74
2022/08/14 08:24:48;;;;;;;6.18;3.60;;;;;;;25.26;46.56;100590.78;5034868;28;20056;-74
2022/08/14 08:27:20;;;;;;;4.50;3.30;;;;;;;25.25;46.59;100586.41;5051299;28;20033;-74
2022/08/14 08:29:49;;;;;;;5.07;3.22;;;;;;;25.25;46.39;100589.97;5054435;28;20385;-74
2022/08/14 08:32:17;;;;;;;4.95;3.30;;;;;;;25.25;46.38;100583.69;5054740;28;20508;-74
2022/08/14 08:34:47;;;;;;;4.10;3.35;;;;;;;25.25;46.40;100584.53;5053188;28;20393;-74
2022/08/14 08:37:16;;;;;;;4.53;3.67;;;;;;;25.28;46.12;100591.44;5053994;28;20483;-74
2022/08/14 08:39:46;;;;;;;4.50;3.40;;;;;;;25.26;45.31;100586.22;5053181;28;20048;-74
2022/08/14 08:42:31;;;;;;;6.90;3.10;;;;;;;25.29;45.06;100598.56;5053317;28;20056;-74
2022/08/14 08:45:15;;;;;;;3.80;3.03;;;;;;;25.28;44.39;100594.16;5053959;28;20045;-74
2022/08/14 08:47:44;;;;;;;;;;;;;;;25.28;44.53;100600.44;5054400;28;20468;-75
2022/08/14 08:50:30;;;;;;;3.95;2.60;;;;;;;25.28;43.55;100600.44;5039558;28;19921;-74
2022/08/14 08:53:00;;;;;;;4.50;2.88;;;;;;;25.29;42.97;100593.16;5048213;28;20041;-74
2022/08/14 08:55:37;;;;;;;2.97;2.67;;;;;;;25.30;42.63;100592.13;5053933;28;20045;-74
2022/08/14 08:58:08;;;;;;;3.15;2.55;;;;;;;25.31;42.61;100585.69;5054597;28;20632;-74
2022/08/14 09:00:47;;;;;;;4.05;2.40;;;;;;;25.31;42.93;100580.25;5058139;28;20044;-74
2022/08/14 09:03:19;;;;;;;3.05;2.38;;;;;;;25.33;43.08;100586.38;5053691;28;20504;-74
2022/08/14 09:05:53;;;;;;;4.13;2.42;;;;;;;25.34;43.27;100588.03;5066524;28;20045;-74
2022/08/14 09:08:25;;;;;;;6.63;2.50;;;;;;;25.37;43.14;100593.13;5053902;28;20052;-74
2022/08/14 09:11:08;;;;;;;3.95;2.22;;;;;;;25.38;43.41;100590.22;5053855;28;20052;-73
2022/08/14 09:13:52;;;;;;;2.67;2.17;;;;;;;25.40;43.19;100592.75;5053463;28;20057;-74
2022/08/14 09:16:21;;;;;;;3.88;2.42;;;;;;;25.42;42.38;100589.88;5060592;28;20044;-74
2022/08/14 09:18:51;;;;;;;4.43;2.55;;;;;;;25.43;42.03;100584.25;5056886;28;20469;-74
2022/08/14 09:21:20;;;;;;;4.72;2.28;;;;;;;25.45;41.97;100581.38;5053776;28;20041;-74
2022/08/14 09:23:54;;;;;;;5.38;2.80;;;;;;;25.48;42.18;100576.47;5053648;28;20052;-74
2022/08/14 09:26:43;;;;;;;3.53;2.53;;;;;;;25.49;41.87;100561.88;5033284;28;20054;-74
2022/08/14 09:29:17;;;;;;;2.90;2.47;;;;;;;25.52;41.80;100561.53;5033202;28;20044;-73
2022/08/14 09:31:54;;;;;;;3.20;2.53;;;;;;;25.55;41.94;100566.56;5033952;28;20049;-74
2022/08/14 09:34:36;;;;;;;6.32;2.55;;;;;;;25.55;41.40;100553.00;5040094;28;20045;-74
2022/08/14 09:37:36;;;;;;;2.83;2.50;;;;;;;25.57;41.72;100553.69;5053175;28;20045;-74
2022/08/14 09:40:26;;;;;;;3.47;2.53;;;;;;;25.59;41.55;100556.22;5053067;28;20041;-74
2022/08/14 09:43:17;;;;;;;3.95;2.47;;;;;;;25.61;42.10;100560.44;5053069;28;20056;-74
2022/08/14 09:45:49;;;;;;;;;;;;;;;25.64;41.80;100556.50;5036744;28;20382;-74
2022/08/14 09:48:22;;;;;;;3.25;2.70;;;;;;;25.65;41.89;100544.66;5059373;28;19920;-74
2022/08/14 09:50:58;;;;;;;3.25;2.63;;;;;;;25.67;42.03;100545.31;5067414;28;20048;-74
2022/08/14 09:53:58;;;;;;;2.70;2.50;;;;;;;25.68;41.79;100551.56;5053213;28;20112;-74
2022/08/14 09:56:47;;;;;;;3.13;2.50;;;;;;;25.70;41.77;100539.53;5053135;28;20040;-74
2022/08/14 09:59:26;;;;;;;3.22;2.10;;;;;;;25.72;41.68;100544.75;5052913;28;20045;-74
2022/08/14 10:01:58;;;;;;;2.72;2.28;;;;;;;25.74;41.91;100538.16;5053407;28;20048;-74
2022/08/14 10:04:27;;;;;;;2.88;2.53;;;;;;;25.76;42.06;100540.66;5054127;28;20057;-76
2022/08/14 10:07:05;;;;;;;3.35;2.63;;;;;;;25.77;41.97;100545.97;5057059;28;20052;-75
2022/08/14 10:09:48;;;;;;;3.38;2.38;;;;;;;25.79;41.79;100543.06;5057283;28;20037;-79
2022/08/14 10:12:47;;;;;;;3.63;2.25;;;;;;;25.80;41.95;100539.31;5056996;28;20068;-74
2022/08/14 10:15:21;;;;;;;2.85;2.20;;;;;;;25.82;41.00;100531.84;5056697;28;20068;-75
2022/08/14 10:18:08;;;;;;;3.72;2.30;;;;;;;25.84;40.17;100527.91;5066021;28;20045;-74
2022/08/14 10:20:54;;;;;;;6.07;2.40;;;;;;;25.88;41.00;100536.53;5076594;28;20530;-74
2022/08/14 10:23:25;;;;;;;4.95;2.38;;;;;;;25.90;40.66;100523.66;5075929;28;20052;-75
2022/08/14 10:26:05;;;;;;;4.03;2.20;;;;;;;25.92;41.06;100521.59;5077247;28;20048;-74
2022/08/14 10:28:41;;;;;;;3.25;2.63;;;;;;;25.94;40.66;100519.53;5054551;28;20037;-74
2022/08/14 10:31:30;;;;;;;3.20;2.35;;;;;;;25.96;40.75;100519.34;5045999;28;20044;-74
2022/08/14 10:34:17;;;;;;;5.03;2.47;;;;;;;25.95;40.37;100514.97;5056692;28;20067;-74
2022/08/14 10:36:47;;;;;;;3.55;2.50;;;;;;;25.97;40.71;100512.91;5055233;28;20055;-73
2022/08/14 10:39:28;;;;;;;3.88;2.25;;;;;;;25.98;40.53;100518.16;5056344;28;20495;-73
2022/08/14 10:42:07;;;;;;;3.40;2.55;;;;;;;26.02;40.42;100508.63;5056431;28;20061;-74
2022/08/14 10:44:47;;;;;;;2.92;2.45;;;;;;;26.04;40.74;100500.28;5056050;28;20480;-73
2022/08/14 10:47:18;;;;;;;3.70;2.88;;;;;;;26.04;40.00;100509.25;5049350;28;20049;-75
2022/08/14 10:50:08;;;;;;;2.47;2.20;;;;;;;26.04;40.40;100498.41;5036403;28;20499;-75
2022/08/14 10:52:41;;;;;;;3.55;2.33;;;;;;;26.06;40.44;100507.22;5037815;28;20044;-74
2022/08/14 10:55:12;;;;;;;3.47;2.55;;;;;;;26.07;40.40;100497.22;5036007;28;20052;-74
2022/08/14 10:57:51;;;;;;;3.45;2.63;;;;;;;26.10;40.41;100494.97;5043400;28;20047;-74
2022/08/14 11:00:25;;;;;;;4.22;2.47;;;;;;;26.15;40.51;100489.00;5056152;28;20049;-74
2022/08/14 11:03:03;;;;;;;3.88;2.35;;;;;;;26.16;41.02;100481.69;5042386;28;20057;-73
2022/08/14 11:05:49;;;;;;;6.05;2.08;;;;;;;26.17;43.71;100483.38;5048956;28;20055;-72
2022/08/14 11:08:32;;;;;;;4.65;2.40;;;;;;;26.12;44.50;100479.34;5075958;28;20048;-72
2022/08/14 11:11:04;;;;;;;2.50;2.03;;;;;;;26.09;48.50;100477.03;5075770;28;20388;-72
2022/08/14 11:13:32;;;;;;;3.42;2.70;;;;;;;26.06;47.18;100469.25;5076061;28;20492;-72
2022/08/14 11:16:01;;;;;;;3.20;2.50;;;;;;;26.03;45.50;100469.59;5055595;28;20396;-72
2022/08/14 11:18:31;;;;;;;3.90;2.40;;;;;;;26.01;47.88;100466.25;5055706;28;20053;-72
2022/08/14 11:21:08;;;;;;;3.08;2.60;;;;;;;25.99;48.59;100456.59;5052955;28;20053;-72
2022/08/14 11:23:40;;;;;;;4.22;2.85;;;;;;;25.98;48.58;100472.03;5054446;28;20045;-73
2022/08/14 11:26:12;;;;;;;3.60;2.58;;;;;;;25.97;45.54;100469.50;5047186;28;20511;-73
2022/08/14 11:28:42;;;;;;;3.92;2.28;;;;;;;25.97;46.11;100461.34;5035490;28;20045;-73
2022/08/14 11:31:20;;;;;;;2.95;2.20;;;;;;;25.96;46.78;100460.53;5035852;28;20057;-73
2022/08/14 11:33:56;;;;;;;2.72;2.35;;;;;;;25.96;46.85;100456.97;5035316;28;20408;-72
2022/08/14 11:36:27;;;;;;;2.55;2.30;;;;;;;25.97;49.35;100445.94;5035491;28;20053;-72
2022/08/14 11:39:22;;;;;;;3.38;2.60;;;;;;;26.01;43.34;100438.25;5054407;28;20408;-73
2022/08/14 11:42:04;;;;;;;3.55;2.60;;;;;;;26.05;44.54;100440.44;5060965;28;20052;-74
2022/08/14 11:44:56;;;;;;;3.58;2.55;;;;;;;26.06;43.94;100444.84;5075377;28;20424;-72
2022/08/14 11:47:27;;;;;;;3.03;2.58;;;;;;;26.07;44.80;100443.81;5075186;28;20045;-72
2022/08/14 11:50:12;;;;;;;4.78;2.42;;;;;;;26.09;42.25;100438.19;5055930;28;20045;-74
2022/08/14 11:52:39;;;;;;;3.67;2.53;;;;;;;26.17;41.67;100445.38;5053889;28;20043;-75
2022/08/14 11:55:10;;;;;;;3.90;2.30;;;;;;;26.23;44.08;100445.50;5054357;28;20053;-75
2022/08/14 11:57:39;;;;;;;3.00;2.50;;;;;;;26.20;43.86;100426.03;5055613;28;20049;-73
2022/08/14 12:00:11;;;;;;;5.00;2.45;;;;;;;26.23;42.51;100425.66;5053962;28;20396;-73
2022/08/14 12:02:52;;;;;;;3.95;2.55;;;;;;;26.26;42.18;100418.00;5054844;28;20049;-74
2022/08/14 12:05:41;;;;;;;3.30;2.38;;;;;;;26.36;39.26;100420.41;5055105;28;20052;-74
2022/08/14 12:08:09;;;;;;;4.05;2.10;;;;;;;26.34;39.02;100409.75;5037123;28;20053;-73
2022/08/14 12:10:42;;;;;;;2.40;2.20;;;;;;;26.43;38.03;100407.78;5054549;28;20044;-73
2022/08/14 12:13:10;;;;;;;4.43;2.38;;;;;;;26.50;39.30;100400.59;5054714;28;20051;-72
2022/08/14 12:15:37;;;;;;;2.65;2.25;;;;;;;26.46;45.45;100395.75;5041030;28;20050;-74
2022/08/14 12:18:12;;;;;;;6.97;2.40;;;;;;;26.41;41.10;100398.13;5034354;28;20049;-73
2022/08/14 12:20:46;;;;;;;7.20;2.35;;;;;;;26.46;39.42;100391.16;5034046;28;20048;-73
2022/08/14 12:23:25;;;;;;;3.85;2.30;;;;;;;26.68;37.89;100396.63;5034901;28;20057;-73
2022/08/14 12:26:07;;;;;;;3.05;2.33;;;;;;;26.64;39.60;100398.88;5034499;28;20543;-73